createdAt,value
2022-11-16T00:00:49.883Z,1.7
2022-11-16T00:01:58.652Z,2.1
2022-11-16T00:03:08.284Z,1.6
2022-11-16T00:04:15.937Z,1.8
2022-11-16T00:05:28.276Z,1.7
2022-11-16T00:06:35.327Z,2.2
2022-11-16T00:07:42.996Z,2.3
2022-11-16T00:08:52.703Z,2
2022-11-16T00:10:02.366Z,2
2022-11-16T00:11:12.051Z,1.9
2022-11-16T00:12:21.762Z,1.7
2022-11-16T00:13:30.424Z,2.1
2022-11-16T00:14:41.117Z,2.3
2022-11-16T00:15:50.755Z,2
2022-11-16T00:16:58.443Z,2.5
2022-11-16T00:18:08.132Z,2.5
2022-11-16T00:19:16.821Z,2.2
2022-11-16T00:20:25.481Z,2.1
2022-11-16T00:21:35.176Z,2.2
2022-11-16T00:22:42.868Z,1.8
2022-11-16T00:23:51.557Z,1.8
2022-11-16T00:25:01.224Z,2.3
2022-11-16T00:26:08.899Z,2.3
2022-11-16T00:27:18.578Z,1.8
2022-11-16T00:28:27.306Z,1.8
2022-11-16T00:29:35.998Z,1.9
2022-11-16T00:30:45.694Z,2.3
2022-11-16T00:31:54.355Z,2.3
2022-11-16T00:33:04.023Z,1.7
2022-11-16T00:34:13.719Z,1.5
2022-11-16T00:35:22.388Z,1.7
2022-11-16T00:36:32.064Z,1.7
2022-11-16T00:37:40.729Z,1.8
2022-11-16T00:38:48.406Z,1.8
2022-11-16T00:39:58.102Z,1.8
2022-11-16T00:41:06.773Z,1.7
2022-11-16T00:42:15.431Z,1.7
2022-11-16T00:43:25.114Z,2.1
2022-11-16T00:44:33.776Z,2.2
2022-11-16T00:45:43.494Z,2
2022-11-16T00:46:53.189Z,1.8
2022-11-16T00:48:02.816Z,1.6
2022-11-16T00:49:12.487Z,2
2022-11-16T00:50:21.158Z,2
2022-11-16T00:51:29.899Z,1.8
2022-11-16T00:52:39.562Z,2.1
2022-11-16T00:53:47.229Z,2
2022-11-16T00:54:56.892Z,1.8
2022-11-16T00:56:06.590Z,2.1
2022-11-16T00:57:15.304Z,2.1
2022-11-16T00:58:24.983Z,1.9
2022-11-16T00:59:34.641Z,2
2022-11-16T01:00:43.318Z,2
2022-11-16T01:01:53.050Z,2.4
2022-11-16T01:03:02.730Z,2.7
2022-11-16T01:04:12.399Z,2.3
2022-11-16T01:05:21.052Z,2.4
2022-11-16T01:06:28.741Z,2.5
2022-11-16T01:07:38.572Z,2.1
2022-11-16T01:08:46.246Z,1.9
2022-11-16T01:09:55.030Z,2.2
2022-11-16T01:11:04.642Z,2.3
2022-11-16T01:12:12.294Z,2.4
2022-11-16T01:13:22.026Z,2.4
2022-11-16T01:14:30.709Z,2.2
2022-11-16T01:15:40.376Z,1.9
2022-11-16T01:16:50.049Z,2.4
2022-11-16T01:17:56.705Z,2.1
2022-11-16T01:19:06.437Z,2.4
2022-11-16T01:20:15.117Z,2.5
2022-11-16T01:21:23.775Z,2
2022-11-16T01:22:33.446Z,2.1
2022-11-16T01:23:42.111Z,1.9
2022-11-16T01:24:51.780Z,1.9
2022-11-16T01:26:00.478Z,1.5
2022-11-16T01:27:09.160Z,2.2
2022-11-16T01:28:18.833Z,2.1
2022-11-16T01:29:28.511Z,1.7
2022-11-16T01:30:37.195Z,1.9
2022-11-16T01:31:46.878Z,1.8
2022-11-16T01:32:55.552Z,1.9
2022-11-16T01:34:05.234Z,1.8
2022-11-16T01:35:13.928Z,2.3
2022-11-16T01:36:21.574Z,1.8
2022-11-16T01:37:30.262Z,1.4
2022-11-16T01:38:38.929Z,2
2022-11-16T01:39:48.592Z,2.1
2022-11-16T01:40:58.249Z,1.7
2022-11-16T01:42:06.918Z,2.1
2022-11-16T01:43:16.618Z,1.9
2022-11-16T01:44:26.277Z,1.8
2022-11-16T01:45:34.937Z,2
2022-11-16T01:46:44.633Z,2.1
2022-11-16T01:47:52.327Z,1.5
2022-11-16T01:49:00.986Z,1.8
2022-11-16T01:50:10.649Z,1.9
2022-11-16T01:51:18.346Z,2.1
2022-11-16T01:52:27.160Z,2.4
2022-11-16T01:53:35.832Z,2.2
2022-11-16T01:54:43.621Z,2.2
2022-11-16T01:55:53.323Z,2.2
2022-11-16T01:57:01.000Z,2.4
2022-11-16T01:58:09.646Z,1.7
2022-11-16T01:59:19.301Z,2
2022-11-16T02:00:26.969Z,2
2022-11-16T02:01:36.684Z,1.6
2022-11-16T02:02:46.333Z,1.7
2022-11-16T02:03:56.010Z,2.1
2022-11-16T02:05:05.675Z,1.8
2022-11-16T02:06:14.477Z,1.9
2022-11-16T02:07:23.229Z,1.9
2022-11-16T02:08:33.098Z,1.8
2022-11-16T02:09:40.549Z,1.9
2022-11-16T02:10:50.220Z,2
2022-11-16T02:11:58.901Z,2.2
2022-11-16T02:13:06.553Z,2
2022-11-16T02:14:16.257Z,2.1
2022-11-16T02:15:24.928Z,1.8
2022-11-16T02:16:34.643Z,1.8
2022-11-16T02:17:44.317Z,2.4
2022-11-16T02:18:51.984Z,2.3
2022-11-16T02:20:01.725Z,2.1
2022-11-16T02:21:10.433Z,2
2022-11-16T02:22:18.128Z,2.1
2022-11-16T02:23:27.842Z,2
2022-11-16T02:24:36.496Z,2.1
2022-11-16T02:25:46.164Z,2.1
2022-11-16T02:26:55.850Z,2.4
2022-11-16T02:28:04.538Z,2.3
2022-11-16T02:29:14.231Z,1.8
2022-11-16T02:30:22.892Z,2.3
2022-11-16T02:31:30.569Z,2.1
2022-11-16T02:32:40.257Z,2.6
2022-11-16T02:33:48.937Z,2.2
2022-11-16T02:34:56.689Z,2.7
2022-11-16T02:36:06.321Z,2.3
2022-11-16T02:37:14.998Z,2.3
2022-11-16T02:38:24.704Z,2.6
2022-11-16T02:39:34.389Z,2.3
2022-11-16T02:40:44.063Z,1.9
2022-11-16T02:41:53.742Z,1.9
2022-11-16T02:43:02.413Z,2.4
2022-11-16T02:44:11.124Z,2.2
2022-11-16T02:45:20.886Z,2.4
2022-11-16T02:46:29.566Z,2.1
2022-11-16T02:47:39.268Z,2.2
2022-11-16T02:48:47.974Z,1.9
2022-11-16T02:49:56.635Z,2.5
2022-11-16T02:51:06.295Z,2.4
2022-11-16T02:52:18.833Z,2.3
2022-11-16T02:53:26.666Z,2.4
2022-11-16T02:54:36.340Z,2.5
2022-11-16T02:55:45.027Z,2.8
2022-11-16T02:56:54.684Z,2.5
2022-11-16T02:58:03.498Z,2.5
2022-11-16T02:59:17.492Z,2.9
2022-11-16T03:00:23.923Z,2.8
2022-11-16T03:01:33.710Z,2.5
2022-11-16T03:02:43.306Z,2.2
2022-11-16T03:03:52.990Z,2.7
2022-11-16T03:05:02.660Z,2.9
2022-11-16T03:06:12.360Z,2.4
2022-11-16T03:07:21.038Z,2.7
2022-11-16T03:08:29.908Z,2.8
2022-11-16T03:09:39.422Z,2.7
2022-11-16T03:10:48.151Z,3.1
2022-11-16T03:11:55.796Z,3
2022-11-16T03:13:05.486Z,2.7
2022-11-16T03:14:13.151Z,2.4
2022-11-16T03:15:21.836Z,2.6
2022-11-16T03:16:31.513Z,3.1
2022-11-16T03:17:39.176Z,2.8
2022-11-16T03:18:48.841Z,2.7
2022-11-16T03:19:57.491Z,2.4
2022-11-16T03:21:06.169Z,2
2022-11-16T03:22:15.832Z,2.3
2022-11-16T03:23:23.491Z,2.5
2022-11-16T03:24:33.156Z,2.6
2022-11-16T03:25:42.818Z,2.2
2022-11-16T03:26:51.529Z,2.7
2022-11-16T03:28:01.190Z,2.6
2022-11-16T03:29:09.848Z,2.6
2022-11-16T03:30:23.296Z,2.4
2022-11-16T03:31:30.259Z,2.2
2022-11-16T03:32:37.948Z,2.1
2022-11-16T03:33:46.679Z,2.6
2022-11-16T03:34:56.344Z,2.4
2022-11-16T03:36:06.017Z,2.3
2022-11-16T03:37:15.710Z,2.5
2022-11-16T03:38:24.364Z,2.3
2022-11-16T03:39:34.036Z,2.3
2022-11-16T03:40:43.703Z,2.3
2022-11-16T03:41:51.371Z,2.3
2022-11-16T03:43:00.045Z,1.8
2022-11-16T03:44:09.704Z,2.3
2022-11-16T03:45:18.357Z,2
2022-11-16T03:46:28.030Z,2.3
2022-11-16T03:47:36.685Z,2.7
2022-11-16T03:48:45.362Z,2.1
2022-11-16T03:49:55.050Z,2.4
2022-11-16T03:51:00.698Z,2.6
2022-11-16T03:52:10.349Z,2.5
2022-11-16T03:53:19.006Z,2.4
2022-11-16T03:54:27.680Z,2.5
2022-11-16T03:55:37.359Z,2
2022-11-16T03:56:47.030Z,2.2
2022-11-16T03:57:56.687Z,2.3
2022-11-16T03:59:05.363Z,2.1
2022-11-16T04:00:14.015Z,2.2
2022-11-16T04:01:23.831Z,2.4
2022-11-16T04:02:32.464Z,2.2
2022-11-16T04:03:41.139Z,2
2022-11-16T04:04:50.796Z,2.6
2022-11-16T04:05:59.449Z,2.8
2022-11-16T04:07:09.223Z,2.1
2022-11-16T04:08:17.838Z,2.4
2022-11-16T04:09:25.497Z,2.7
2022-11-16T04:10:35.167Z,2.4
2022-11-16T04:11:44.822Z,2.5
2022-11-16T04:12:54.535Z,2.6
2022-11-16T04:14:08.880Z,2.4
2022-11-16T04:15:12.861Z,2.9
2022-11-16T04:16:22.513Z,2.9
2022-11-16T04:17:31.202Z,2.6
2022-11-16T04:18:39.910Z,2.6
2022-11-16T04:19:50.926Z,2.6
2022-11-16T04:20:58.251Z,2.5
2022-11-16T04:22:06.919Z,2.6
2022-11-16T04:23:16.575Z,2.7
2022-11-16T04:24:26.293Z,2.7
2022-11-16T04:25:36.016Z,2.7
2022-11-16T04:26:44.728Z,3.1
2022-11-16T04:27:54.387Z,2.4
2022-11-16T04:29:04.050Z,2.3
2022-11-16T04:30:11.735Z,3
2022-11-16T04:31:20.413Z,2.2
2022-11-16T04:32:30.125Z,2.7
2022-11-16T04:33:37.836Z,2.9
2022-11-16T04:34:47.506Z,2.9
2022-11-16T04:35:56.176Z,2.4
2022-11-16T04:37:03.834Z,2.7
2022-11-16T04:38:13.499Z,2.7
2022-11-16T04:39:21.149Z,2.9
2022-11-16T04:40:29.802Z,2.4
2022-11-16T04:41:39.624Z,2.2
2022-11-16T04:42:48.376Z,2.3
2022-11-16T04:43:58.036Z,2.3
2022-11-16T04:45:06.694Z,2.7
2022-11-16T04:46:14.351Z,2.5
2022-11-16T04:47:24.073Z,2.7
2022-11-16T04:48:31.929Z,2.2
2022-11-16T04:49:41.377Z,2.4
2022-11-16T04:50:51.031Z,2.3
2022-11-16T04:51:57.671Z,2.4
2022-11-16T04:53:07.367Z,2.7
2022-11-16T04:54:16.030Z,2.5
2022-11-16T04:55:23.681Z,2.4
2022-11-16T04:56:32.344Z,2.1
2022-11-16T04:57:41.007Z,2.5
2022-11-16T04:58:49.773Z,2.3
2022-11-16T04:59:59.433Z,2.4
2022-11-16T05:01:09.121Z,2.6
2022-11-16T05:02:18.849Z,2.6
2022-11-16T05:03:28.543Z,2.4
2022-11-16T05:04:37.328Z,2.5
2022-11-16T05:05:46.982Z,2.7
2022-11-16T05:06:55.655Z,2.4
2022-11-16T05:08:04.294Z,2.7
2022-11-16T05:09:13.992Z,2.3
2022-11-16T05:10:20.649Z,2.4
2022-11-16T05:11:30.332Z,2.7
2022-11-16T05:12:39.041Z,2.5
2022-11-16T05:13:48.719Z,2.3
2022-11-16T05:14:58.395Z,2.4
2022-11-16T05:16:07.085Z,2.3
2022-11-16T05:17:15.765Z,2
2022-11-16T05:18:25.434Z,2.5
2022-11-16T05:19:34.113Z,2.1
2022-11-16T05:20:43.755Z,2.5
2022-11-16T05:21:52.436Z,2.6
2022-11-16T05:23:00.091Z,2.6
2022-11-16T05:24:09.751Z,2.2
2022-11-16T05:25:17.437Z,2.5
2022-11-16T05:26:27.085Z,2.4
2022-11-16T05:27:36.775Z,2.8
2022-11-16T05:28:45.428Z,2.2
2022-11-16T05:29:55.092Z,1.9
2022-11-16T05:31:03.748Z,2.9
2022-11-16T05:32:13.426Z,2.2
2022-11-16T05:33:23.117Z,2.2
2022-11-16T05:34:31.788Z,2.5
2022-11-16T05:35:41.506Z,2.7
2022-11-16T05:36:50.184Z,2.5
2022-11-16T05:37:58.833Z,2.5
2022-11-16T05:39:07.771Z,2.7
2022-11-16T05:40:17.485Z,2.8
2022-11-16T05:41:25.141Z,2.4
2022-11-16T05:42:34.834Z,2.5
2022-11-16T05:43:43.484Z,2.5
2022-11-16T05:44:53.158Z,2.9
2022-11-16T05:46:02.826Z,2.6
2022-11-16T05:47:10.492Z,2.4
2022-11-16T05:48:20.163Z,2.7
2022-11-16T05:49:29.858Z,2.5
2022-11-16T05:50:42.676Z,2.7
2022-11-16T05:51:49.249Z,2.4
2022-11-16T05:52:56.886Z,2.4
2022-11-16T05:54:06.546Z,2.6
2022-11-16T05:55:15.196Z,2.6
2022-11-16T05:56:23.908Z,2.5
2022-11-16T05:57:33.532Z,2.4
2022-11-16T05:58:42.194Z,2.5
2022-11-16T05:59:51.879Z,2.6
2022-11-16T06:01:00.577Z,2.4
2022-11-16T06:02:09.322Z,2.5
2022-11-16T06:03:19.037Z,2.9
2022-11-16T06:04:28.653Z,2.5
2022-11-16T06:05:40.579Z,2.4
2022-11-16T06:06:47.988Z,2.9
2022-11-16T06:07:57.753Z,3.1
2022-11-16T06:09:07.417Z,3.3
2022-11-16T06:10:17.079Z,3.2
2022-11-16T06:11:25.731Z,2.8
2022-11-16T06:12:34.384Z,2.7
2022-11-16T06:13:43.076Z,3.5
2022-11-16T06:14:51.737Z,3.9
2022-11-16T06:16:01.664Z,2.4
2022-11-16T06:17:10.072Z,3.2
2022-11-16T06:18:19.739Z,2.8
2022-11-16T06:19:32.307Z,3.2
2022-11-16T06:20:38.034Z,3.8
2022-11-16T06:21:48.694Z,4.6
2022-11-16T06:22:58.356Z,4.1
2022-11-16T06:24:07.022Z,3.9
2022-11-16T06:25:16.700Z,4
2022-11-16T06:26:24.351Z,4.3
2022-11-16T06:27:34.015Z,4.2
2022-11-16T06:28:42.706Z,4.5
2022-11-16T06:29:51.363Z,4.6
2022-11-16T06:31:01.158Z,4.2
2022-11-16T06:32:10.859Z,4.5
2022-11-16T06:33:20.475Z,5.3
2022-11-16T06:34:30.132Z,4.2
2022-11-16T06:35:38.806Z,4.6
2022-11-16T06:36:48.489Z,4.2
2022-11-16T06:37:57.174Z,4.6
2022-11-16T06:39:05.829Z,5.1
2022-11-16T06:40:15.507Z,4.9
2022-11-16T06:41:24.168Z,5.1
2022-11-16T06:42:32.914Z,4.9
2022-11-16T06:43:42.553Z,5.1
2022-11-16T06:44:50.218Z,5.8
2022-11-16T06:45:59.872Z,5.1
2022-11-16T06:47:08.564Z,5.2
2022-11-16T06:48:18.266Z,4.8
2022-11-16T06:49:27.951Z,4.8
2022-11-16T06:50:35.619Z,5.6
2022-11-16T06:51:46.302Z,5.5
2022-11-16T06:52:55.991Z,4.7
2022-11-16T06:54:03.671Z,4.1
2022-11-16T06:55:13.354Z,4.2
2022-11-16T06:56:22.018Z,3.3
2022-11-16T06:57:30.685Z,3.2
2022-11-16T06:58:42.683Z,2.3
2022-11-16T06:59:49.047Z,2.2
2022-11-16T07:00:58.730Z,1.6
2022-11-16T07:02:08.433Z,1.6
2022-11-16T07:03:17.057Z,1.7
2022-11-16T07:04:26.881Z,2
2022-11-16T07:05:36.565Z,1.6
2022-11-16T07:06:44.241Z,1.6
2022-11-16T07:07:53.919Z,1.7
2022-11-16T07:09:02.650Z,1.6
2022-11-16T07:10:11.311Z,1.9
2022-11-16T07:11:21.137Z,2.2
2022-11-16T07:12:29.819Z,1.9
2022-11-16T07:13:39.503Z,2.1
2022-11-16T07:14:48.193Z,2.3
2022-11-16T07:15:57.864Z,3
2022-11-16T07:17:09.593Z,2.4
2022-11-16T07:18:17.186Z,2.9
2022-11-16T07:19:26.924Z,3
2022-11-16T07:20:36.884Z,2.8
2022-11-16T07:21:44.303Z,2.7
2022-11-16T07:22:54.004Z,2.7
2022-11-16T07:24:02.676Z,2.3
2022-11-16T07:25:13.349Z,2.5
2022-11-16T07:26:23.028Z,2.2
2022-11-16T07:27:30.681Z,2.4
2022-11-16T07:28:44.983Z,2.1
2022-11-16T07:29:50.051Z,2.2
2022-11-16T07:30:58.702Z,2.2
2022-11-16T07:32:08.387Z,2.6
2022-11-16T07:33:18.047Z,2.3
2022-11-16T07:34:25.730Z,2.2
2022-11-16T07:35:35.392Z,2.3
2022-11-16T07:36:45.211Z,2.3
2022-11-16T07:37:54.756Z,2.2
2022-11-16T07:39:04.467Z,1.8
2022-11-16T07:40:14.158Z,1.8
2022-11-16T07:41:23.860Z,2
2022-11-16T07:42:32.527Z,1.9
2022-11-16T07:43:41.186Z,1.6
2022-11-16T07:44:50.839Z,2
2022-11-16T07:46:21.493Z,1.6
2022-11-16T07:47:11.190Z,1.8
2022-11-16T07:48:19.848Z,1.9
2022-11-16T07:49:28.520Z,1.8
2022-11-16T07:50:38.177Z,2
2022-11-16T07:51:47.980Z,1.9
2022-11-16T07:52:57.542Z,1.6
2022-11-16T07:54:06.226Z,1.9
2022-11-16T07:55:14.875Z,1.7
2022-11-16T07:56:24.537Z,1.7
2022-11-16T07:57:32.235Z,1.9
2022-11-16T07:58:40.896Z,1.7
2022-11-16T07:59:49.560Z,1.9
2022-11-16T08:00:57.200Z,1.9
2022-11-16T08:02:06.919Z,1.6
2022-11-16T08:03:18.177Z,1.5
2022-11-16T08:04:24.242Z,1.2
2022-11-16T08:05:33.918Z,1.3
2022-11-16T08:06:41.579Z,1.2
2022-11-16T08:07:51.361Z,1.1
2022-11-16T08:09:00.933Z,1.5
2022-11-16T08:10:08.648Z,1.3
2022-11-16T08:11:18.249Z,1.2
2022-11-16T08:12:27.908Z,1.5
2022-11-16T08:13:35.561Z,1.5
2022-11-16T08:14:45.384Z,1.5
2022-11-16T08:15:53.052Z,1.2
2022-11-16T08:17:01.726Z,1.5
2022-11-16T08:18:11.419Z,1.1
2022-11-16T08:19:19.135Z,1.2
2022-11-16T08:20:28.873Z,1.1
2022-11-16T08:21:37.463Z,0.8
2022-11-16T08:22:45.125Z,1
2022-11-16T08:23:58.289Z,0.5
2022-11-16T08:25:04.458Z,0.7
2022-11-16T08:26:14.158Z,1.2
2022-11-16T08:27:23.847Z,0.7
2022-11-16T08:28:31.880Z,0.8
2022-11-16T08:29:41.165Z,1
2022-11-16T08:30:53.645Z,1
2022-11-16T08:32:00.687Z,1
2022-11-16T08:33:10.374Z,0.9
2022-11-16T08:34:19.114Z,0.8
2022-11-16T08:35:27.780Z,1
2022-11-16T08:36:37.438Z,1
2022-11-16T08:37:45.155Z,0.8
2022-11-16T08:38:54.829Z,0.8
2022-11-16T08:40:04.623Z,0.9
2022-11-16T08:41:13.182Z,0.7
2022-11-16T08:42:22.856Z,0.8
2022-11-16T08:43:30.530Z,0.8
2022-11-16T08:44:39.194Z,0.8
2022-11-16T08:45:48.958Z,0.8
2022-11-16T08:46:57.626Z,1
2022-11-16T08:48:07.275Z,1.3
2022-11-16T08:49:17.090Z,0.9
2022-11-16T08:50:25.787Z,1
2022-11-16T08:51:35.448Z,0.9
2022-11-16T08:52:43.104Z,0.9
2022-11-16T08:53:51.767Z,0.9
2022-11-16T08:55:01.766Z,1
2022-11-16T08:56:11.554Z,1.2
2022-11-16T08:57:21.139Z,1.2
2022-11-16T08:58:29.848Z,1.1
2022-11-16T08:59:37.496Z,1.1
2022-11-16T09:00:47.204Z,0.7
2022-11-16T09:01:55.939Z,1.1
2022-11-16T09:03:04.554Z,0.8
2022-11-16T09:04:14.218Z,0.9
2022-11-16T09:05:21.898Z,0.9
2022-11-16T09:06:31.587Z,0.7
2022-11-16T09:07:41.308Z,0.6
2022-11-16T09:08:48.970Z,0.7
2022-11-16T09:09:58.639Z,0.8
2022-11-16T09:11:06.297Z,1.2
2022-11-16T09:12:16.120Z,0.8
2022-11-16T09:13:25.674Z,0.9
2022-11-16T09:14:34.346Z,0.8
2022-11-16T09:15:44.013Z,1.1
2022-11-16T09:16:52.691Z,0.9
2022-11-16T09:18:00.423Z,1
2022-11-16T09:19:10.153Z,1
2022-11-16T09:20:18.872Z,0.8
2022-11-16T09:21:27.580Z,0.8
2022-11-16T09:22:37.254Z,0.7
2022-11-16T09:23:45.958Z,0.8
2022-11-16T09:24:55.627Z,0.6
2022-11-16T09:26:04.308Z,0.8
2022-11-16T09:27:11.948Z,0.8
2022-11-16T09:28:21.637Z,1
2022-11-16T09:29:29.317Z,0.8
2022-11-16T09:30:37.998Z,1
2022-11-16T09:31:47.670Z,0.8
2022-11-16T09:32:55.348Z,0.9
2022-11-16T09:34:05.035Z,0.9
2022-11-16T09:35:13.949Z,0.6
2022-11-16T09:36:23.662Z,0.7
2022-11-16T09:37:33.376Z,0.5
2022-11-16T09:39:53.717Z,0.7
2022-11-16T09:41:03.418Z,0.7
2022-11-16T09:42:11.075Z,0.4
2022-11-16T09:43:19.750Z,0.5
2022-11-16T09:44:29.484Z,0.6
2022-11-16T09:45:39.126Z,0.6
2022-11-16T09:46:48.810Z,0.5
2022-11-16T09:47:57.484Z,0.8
2022-11-16T09:49:16.835Z,0.6
2022-11-16T09:50:16.826Z,0.7
2022-11-16T09:51:25.492Z,0.6
2022-11-16T09:52:35.188Z,0.5
2022-11-16T09:53:43.899Z,0.6
2022-11-16T09:54:53.583Z,0.8
2022-11-16T09:56:03.268Z,0.7
2022-11-16T09:57:12.963Z,0.4
2022-11-16T09:58:22.629Z,0.8
2022-11-16T09:59:32.432Z,0.7
2022-11-16T10:00:42.068Z,0.5
2022-11-16T10:01:51.665Z,0.6
2022-11-16T10:02:59.341Z,0.7
2022-11-16T10:04:09.036Z,0.4
2022-11-16T10:05:17.706Z,0.7
2022-11-16T10:06:26.352Z,0.8
2022-11-16T10:07:36.087Z,0.6
2022-11-16T10:08:45.794Z,0.8
2022-11-16T10:09:55.495Z,0.6
2022-11-16T10:11:05.219Z,0.4
2022-11-16T10:12:12.876Z,0.4
2022-11-16T10:13:21.537Z,0.8
2022-11-16T10:14:30.218Z,0.5
2022-11-16T10:15:40.039Z,0.4
2022-11-16T10:16:49.593Z,0.8
2022-11-16T10:17:59.288Z,0.6
2022-11-16T10:19:07.950Z,0.8
2022-11-16T10:20:17.620Z,0.6
2022-11-16T10:21:25.501Z,0.5
2022-11-16T10:22:35.174Z,0.4
2022-11-16T10:23:43.847Z,0.6
2022-11-16T10:24:52.578Z,0.4
2022-11-16T10:26:02.253Z,0.8
2022-11-16T10:27:11.969Z,0.4
2022-11-16T10:28:20.645Z,0.4
2022-11-16T10:29:30.311Z,0.7
2022-11-16T10:30:38.988Z,0.5
2022-11-16T10:31:48.685Z,0.5
2022-11-16T10:32:57.358Z,0.6
2022-11-16T10:34:06.107Z,0.8
2022-11-16T10:35:15.798Z,0.5
2022-11-16T10:36:23.454Z,0.7
2022-11-16T10:37:33.129Z,0.7
2022-11-16T10:38:42.937Z,0.4
2022-11-16T10:39:51.602Z,0.7
2022-11-16T10:41:01.271Z,0.4
2022-11-16T10:42:10.935Z,0.3
2022-11-16T10:43:18.621Z,0.3
2022-11-16T10:44:28.318Z,0.5
2022-11-16T10:45:36.987Z,1.2
2022-11-16T10:46:45.716Z,0.7
2022-11-16T10:47:55.551Z,0.5
2022-11-16T10:49:04.049Z,0.7
2022-11-16T10:50:13.756Z,0.6
2022-11-16T10:51:22.422Z,0.8
2022-11-16T10:52:31.105Z,0.4
2022-11-16T10:53:39.776Z,0.5
2022-11-16T10:54:49.442Z,0.6
2022-11-16T10:55:58.188Z,0.6
2022-11-16T10:57:07.919Z,0.7
2022-11-16T10:58:17.586Z,0.7
2022-11-16T10:59:27.288Z,0.5
2022-11-16T11:00:36.018Z,0.5
2022-11-16T11:01:44.673Z,0.6
2022-11-16T11:02:54.323Z,0.7
2022-11-16T11:04:04.124Z,0.5
2022-11-16T11:05:13.775Z,0.6
2022-11-16T11:06:23.480Z,0.7
2022-11-16T11:07:33.227Z,0.6
2022-11-16T11:08:42.856Z,0.6
2022-11-16T11:09:51.528Z,0.5
2022-11-16T11:10:59.201Z,0.5
2022-11-16T11:12:08.890Z,0.7
2022-11-16T11:13:17.582Z,0.9
2022-11-16T11:14:26.252Z,0.8
2022-11-16T11:15:35.926Z,0.7
2022-11-16T11:16:44.613Z,0.8
2022-11-16T11:17:54.275Z,0.8
2022-11-16T11:19:02.947Z,1
2022-11-16T11:20:12.808Z,0.7
2022-11-16T11:21:22.393Z,0.8
2022-11-16T11:22:30.080Z,1.4
2022-11-16T11:23:39.758Z,1.6
2022-11-16T11:24:49.561Z,0.7
2022-11-16T11:25:57.202Z,0.5
2022-11-16T11:27:06.876Z,0.7
2022-11-16T11:28:15.563Z,0.5
2022-11-16T11:29:24.274Z,0.9
2022-11-16T11:30:33.982Z,0.7
2022-11-16T11:31:42.659Z,0.8
2022-11-16T11:32:51.320Z,0.9
2022-11-16T11:34:00.999Z,0.9
2022-11-16T11:35:08.663Z,0.9
2022-11-16T11:36:18.381Z,0.8
2022-11-16T11:37:27.026Z,0.7
2022-11-16T11:38:34.682Z,0.8
2022-11-16T11:39:44.439Z,0.7
2022-11-16T11:40:54.039Z,0.8
2022-11-16T11:42:02.729Z,0.8
2022-11-16T11:43:14.925Z,0.9
2022-11-16T11:44:21.108Z,0.8
2022-11-16T11:45:30.758Z,0.7
2022-11-16T11:47:18.563Z,0.6
2022-11-16T11:47:57.729Z,0.8
2022-11-16T11:49:00.753Z,0.6
2022-11-16T11:50:08.419Z,0.6
2022-11-16T11:51:18.105Z,0.9
2022-11-16T11:52:27.916Z,0.5
2022-11-16T11:53:36.797Z,1
2022-11-16T11:54:46.310Z,0.8
2022-11-16T11:55:53.944Z,1.2
2022-11-16T11:57:03.644Z,0.8
2022-11-16T11:58:12.292Z,0.7
2022-11-16T11:59:20.973Z,0.7
2022-11-16T12:00:30.653Z,0.8
2022-11-16T12:01:38.302Z,0.7
2022-11-16T12:02:47.003Z,0.8
2022-11-16T12:03:55.657Z,0.7
2022-11-16T12:05:03.344Z,0.8
2022-11-16T12:06:13.016Z,0.8
2022-11-16T12:07:22.771Z,0.5
2022-11-16T12:08:32.556Z,0.6
2022-11-16T12:09:42.072Z,0.6
2022-11-16T12:10:50.755Z,0.7
2022-11-16T12:12:00.502Z,0.7
2022-11-16T12:13:09.192Z,0.7
2022-11-16T12:14:16.850Z,0.8
2022-11-16T12:15:26.513Z,0.6
2022-11-16T12:16:35.195Z,0.7
2022-11-16T12:17:44.864Z,0.7
2022-11-16T12:18:54.536Z,0.5
2022-11-16T12:20:02.186Z,0.5
2022-11-16T12:21:10.862Z,0.7
2022-11-16T12:22:20.655Z,0.6
2022-11-16T12:23:28.332Z,0.7
2022-11-16T12:24:38.131Z,0.5
2022-11-16T12:25:47.665Z,0.5
2022-11-16T12:26:55.316Z,0.6
2022-11-16T12:28:05.128Z,0.5
2022-11-16T12:29:13.807Z,0.6
2022-11-16T12:30:22.472Z,0.8
2022-11-16T12:31:32.136Z,0.6
2022-11-16T12:32:39.826Z,0.4
2022-11-16T12:33:49.526Z,0.7
2022-11-16T12:34:58.198Z,0.5
2022-11-16T12:36:05.855Z,0.6
2022-11-16T12:37:15.521Z,0.7
2022-11-16T12:38:26.463Z,0.6
2022-11-16T12:39:34.836Z,0.8
2022-11-16T12:40:44.608Z,0.6
2022-11-16T12:41:52.159Z,0.5
2022-11-16T12:43:01.837Z,0.7
2022-11-16T12:44:10.489Z,0.8
2022-11-16T12:45:18.310Z,0.6
2022-11-16T12:46:27.982Z,0.6
2022-11-16T12:47:35.644Z,0.8
2022-11-16T12:48:43.320Z,0.5
2022-11-16T12:49:53.069Z,0.5
2022-11-16T12:51:00.752Z,0.8
2022-11-16T12:52:11.439Z,0.8
2022-11-16T12:53:20.126Z,0.6
2022-11-16T12:54:28.798Z,0.8
2022-11-16T12:55:38.528Z,0.9
2022-11-16T12:56:49.211Z,0.9
2022-11-16T12:57:57.847Z,0.8
2022-11-16T12:59:07.515Z,0.8
2022-11-16T13:00:17.173Z,0.9
2022-11-16T13:01:26.918Z,0.6
2022-11-16T13:02:36.574Z,0.5
2022-11-16T13:03:45.253Z,0.7
2022-11-16T13:04:54.922Z,0.8
2022-11-16T13:06:02.577Z,0.7
2022-11-16T13:07:12.273Z,0.8
2022-11-16T13:08:21.989Z,0.5
2022-11-16T13:09:30.666Z,0.7
2022-11-16T13:10:40.360Z,0.7
2022-11-16T13:11:50.034Z,0.6
2022-11-16T13:13:22.212Z,0.7
2022-11-16T13:14:11.364Z,0.7
2022-11-16T13:15:20.031Z,0.9
2022-11-16T13:16:28.715Z,0.9
2022-11-16T13:17:38.382Z,0.8
2022-11-16T13:18:47.037Z,0.8
2022-11-16T13:19:56.752Z,0.8
2022-11-16T13:21:05.439Z,0.5
2022-11-16T13:22:13.105Z,0.6
2022-11-16T13:23:21.770Z,0.8
2022-11-16T13:24:31.461Z,1
2022-11-16T13:25:40.164Z,1.5
2022-11-16T13:26:49.848Z,0.7
2022-11-16T13:27:58.519Z,0.7
2022-11-16T13:29:08.340Z,0.9
2022-11-16T13:30:17.895Z,0.9
2022-11-16T13:31:25.727Z,0.4
2022-11-16T13:32:35.412Z,0.8
2022-11-16T13:33:47.709Z,0.5
2022-11-16T13:34:52.786Z,0.6
2022-11-16T13:36:02.509Z,0.5
2022-11-16T13:37:11.276Z,0.3
2022-11-16T13:38:20.886Z,0.4
2022-11-16T13:39:30.652Z,0.6
2022-11-16T13:40:40.329Z,0.5
2022-11-16T13:41:50.021Z,0.6
2022-11-16T13:42:58.698Z,1
2022-11-16T13:44:08.413Z,0.5
2022-11-16T13:45:18.104Z,0.6
2022-11-16T13:46:53.932Z,0.5
2022-11-16T13:47:38.441Z,0.4
2022-11-16T13:48:47.284Z,0.4
2022-11-16T13:49:56.964Z,0.4
2022-11-16T13:51:05.644Z,0.5
2022-11-16T13:52:23.492Z,0.4
2022-11-16T13:54:44.995Z,0.7
2022-11-16T13:55:47.267Z,0.5
2022-11-16T13:56:56.933Z,0.4
2022-11-16T13:58:05.589Z,0.3
2022-11-16T13:59:15.268Z,0.5
2022-11-16T14:00:25.090Z,0.3
2022-11-16T14:01:32.718Z,0.6
2022-11-16T14:02:42.284Z,0.5
2022-11-16T14:03:49.942Z,0.6
2022-11-16T14:04:58.621Z,0.4
2022-11-16T14:06:07.285Z,0.5
2022-11-16T14:07:14.986Z,0.6
2022-11-16T14:08:24.610Z,0.5
2022-11-16T14:09:34.270Z,0.4
2022-11-16T14:10:41.936Z,0.5
2022-11-16T14:11:51.637Z,0.4
2022-11-16T14:12:59.293Z,0.4
2022-11-16T14:14:07.977Z,0.3
2022-11-16T14:15:17.645Z,0.4
2022-11-16T14:16:27.358Z,0.4
2022-11-16T14:17:37.014Z,0.4
2022-11-16T14:18:46.689Z,0.6
2022-11-16T14:19:54.352Z,0.5
2022-11-16T14:21:04.038Z,0.8
2022-11-16T14:22:12.714Z,0.4
2022-11-16T14:23:21.437Z,0.3
2022-11-16T14:24:31.105Z,0.4
2022-11-16T14:25:38.762Z,0.4
2022-11-16T14:26:48.442Z,0.5
2022-11-16T14:27:58.135Z,0.5
2022-11-16T14:29:06.815Z,0.3
2022-11-16T14:30:16.472Z,0.5
2022-11-16T14:31:25.143Z,0.6
2022-11-16T14:32:39.702Z,0.6
2022-11-16T14:33:45.502Z,0.7
2022-11-16T14:34:54.302Z,1.1
2022-11-16T14:36:03.966Z,1
2022-11-16T14:37:12.636Z,0.9
2022-11-16T14:38:21.293Z,1.7
2022-11-16T14:39:31.946Z,1.5
2022-11-16T14:40:40.682Z,1.4
2022-11-16T14:41:50.412Z,1.5
2022-11-16T14:43:16.757Z,1.2
2022-11-16T14:44:08.712Z,0.9
2022-11-16T14:45:19.384Z,1.1
2022-11-16T14:46:28.069Z,1.1
2022-11-16T14:47:36.727Z,1.2
2022-11-16T14:48:46.441Z,1.2
2022-11-16T14:49:54.068Z,1.1
2022-11-16T14:51:02.728Z,1.1
2022-11-16T14:52:12.500Z,0.9
2022-11-16T14:53:20.185Z,1.1
2022-11-16T14:54:29.894Z,1.3
2022-11-16T14:55:39.581Z,1.4
2022-11-16T14:56:48.264Z,1.5
2022-11-16T14:57:58.012Z,1.5
2022-11-16T14:59:05.671Z,1.4
2022-11-16T15:00:14.334Z,1.5
2022-11-16T15:01:23.987Z,1.3
2022-11-16T15:02:32.668Z,1
2022-11-16T15:03:42.538Z,1
2022-11-16T15:04:51.285Z,0.9
2022-11-16T15:05:59.799Z,1.3
2022-11-16T15:07:09.504Z,1.1
2022-11-16T15:08:18.142Z,1.1
2022-11-16T15:09:26.845Z,1.4
2022-11-16T15:10:36.511Z,1.2
2022-11-16T15:11:46.607Z,1.2
2022-11-16T15:12:56.273Z,1.4
2022-11-16T15:14:04.964Z,1.7
2022-11-16T15:15:15.634Z,1.3
2022-11-16T15:16:25.297Z,1.4
2022-11-16T15:17:34.957Z,1.3
2022-11-16T15:18:43.650Z,1.2
2022-11-16T15:19:53.319Z,1.2
2022-11-16T15:21:03.141Z,1.2
2022-11-16T15:22:12.680Z,1.5
2022-11-16T15:23:23.828Z,1.2
2022-11-16T15:24:32.501Z,1
2022-11-16T15:25:41.756Z,1.3
2022-11-16T15:26:49.441Z,1
2022-11-16T15:27:59.110Z,1.1
2022-11-16T15:29:08.815Z,1
2022-11-16T15:30:18.484Z,0.9
2022-11-16T15:31:28.142Z,0.9
2022-11-16T15:32:37.828Z,1.1
2022-11-16T15:33:45.489Z,1
2022-11-16T15:34:55.163Z,1.3
2022-11-16T15:36:02.824Z,1.7
2022-11-16T15:37:11.616Z,1.5
2022-11-16T15:38:21.221Z,1.6
2022-11-16T15:39:29.883Z,1.7
2022-11-16T15:40:39.575Z,1.5
2022-11-16T15:41:47.210Z,1.3
2022-11-16T15:42:56.895Z,1.3
2022-11-16T15:44:14.361Z,1.5
2022-11-16T15:45:16.183Z,1
2022-11-16T15:46:25.861Z,1.2
2022-11-16T15:47:35.541Z,1.3
2022-11-16T15:48:44.209Z,0.8
2022-11-16T15:49:53.945Z,0.9
2022-11-16T15:51:04.982Z,1
2022-11-16T15:52:14.369Z,0.8
2022-11-16T15:53:23.921Z,0.6
2022-11-16T15:54:31.579Z,1
2022-11-16T15:55:41.303Z,1.1
2022-11-16T15:56:48.952Z,1.6
2022-11-16T15:57:58.648Z,1.8
2022-11-16T15:59:08.289Z,2